sensor_id;sensor_type;location;lat;lon;timestamp;temperature;humidity
30764;DHT22;17497;51.476;7.770;2022-12-18T00:01:15;-4.70;99.90
30764;DHT22;17497;51.476;7.770;2022-12-18T00:03:42;-4.80;99.90
30764;DHT22;17497;51.476;7.770;2022-12-18T00:06:10;-4.80;99.90
30764;DHT22;17497;51.476;7.770;2022-12-18T00:08:37;-4.80;99.90
30764;DHT22;17497;51.476;7.770;2022-12-18T00:11:05;-4.80;99.90
30764;DHT22;17497;51.476;7.770;2022-12-18T00:13:33;-4.90;99.90
30764;DHT22;17497;51.476;7.770;2022-12-18T00:16:06;-5.00;99.90
30764;DHT22;17497;51.476;7.770;2022-12-18T00:18:32;-5.00;99.90
30764;DHT22;17497;51.476;7.770;2022-12-18T00:21:04;-5.00;99.90
30764;DHT22;17497;51.476;7.770;2022-12-18T00:23:33;-5.00;99.90
30764;DHT22;17497;51.476;7.770;2022-12-18T00:26:02;-5.00;99.90
30764;DHT22;17497;51.476;7.770;2022-12-18T00:28:29;-5.00;99.90
30764;DHT22;17497;51.476;7.770;2022-12-18T00:31:02;-4.90;99.90
30764;DHT22;17497;51.476;7.770;2022-12-18T00:33:30;-4.80;99.90
30764;DHT22;17497;51.476;7.770;2022-12-18T00:36:01;-4.60;99.90
30764;DHT22;17497;51.476;7.770;2022-12-18T00:38:28;-4.50;99.90
30764;DHT22;17497;51.476;7.770;2022-12-18T00:40:55;-4.50;99.90
30764;DHT22;17497;51.476;7.770;2022-12-18T00:43:21;-4.50;99.90
30764;DHT22;17497;51.476;7.770;2022-12-18T00:45:49;-4.50;99.90
30764;DHT22;17497;51.476;7.770;2022-12-18T00:48:15;-4.40;99.90
30764;DHT22;17497;51.476;7.770;2022-12-18T00:50:42;-4.40;99.90
30764;DHT22;17497;51.476;7.770;2022-12-18T00:53:09;-4.40;99.90
30764;DHT22;17497;51.476;7.770;2022-12-18T00:55:38;-4.40;99.90
30764;DHT22;17497;51.476;7.770;2022-12-18T00:58:05;-4.40;99.90
30764;DHT22;17497;51.476;7.770;2022-12-18T01:00:32;-4.40;99.90
30764;DHT22;17497;51.476;7.770;2022-12-18T01:02:59;-4.50;99.90
30764;DHT22;17497;51.476;7.770;2022-12-18T01:05:26;-4.50;99.90
30764;DHT22;17497;51.476;7.770;2022-12-18T01:07:53;-4.60;99.90
30764;DHT22;17497;51.476;7.770;2022-12-18T01:10:21;-4.70;99.90
30764;DHT22;17497;51.476;7.770;2022-12-18T01:12:47;-4.80;99.90
30764;DHT22;17497;51.476;7.770;2022-12-18T01:15:15;-4.80;99.90
30764;DHT22;17497;51.476;7.770;2022-12-18T01:17:42;-4.80;99.90
30764;DHT22;17497;51.476;7.770;2022-12-18T01:20:10;-4.90;99.90
30764;DHT22;17497;51.476;7.770;2022-12-18T01:22:37;-4.90;99.90
30764;DHT22;17497;51.476;7.770;2022-12-18T01:25:05;-5.00;99.90
30764;DHT22;17497;51.476;7.770;2022-12-18T01:27:33;-5.10;99.90
30764;DHT22;17497;51.476;7.770;2022-12-18T01:30:00;-5.20;99.90
30764;DHT22;17497;51.476;7.770;2022-12-18T01:32:30;-5.00;99.90
30764;DHT22;17497;51.476;7.770;2022-12-18T01:34:57;-5.00;99.90
30764;DHT22;17497;51.476;7.770;2022-12-18T01:37:24;-5.10;99.90
30764;DHT22;17497;51.476;7.770;2022-12-18T01:39:52;-5.10;99.90
30764;DHT22;17497;51.476;7.770;2022-12-18T01:42:21;-5.10;99.90
30764;DHT22;17497;51.476;7.770;2022-12-18T01:45:20;-5.20;99.90
30764;DHT22;17497;51.476;7.770;2022-12-18T01:48:00;-5.20;99.90
30764;DHT22;17497;51.476;7.770;2022-12-18T01:50:39;-5.30;99.90
30764;DHT22;17497;51.476;7.770;2022-12-18T01:53:15;-5.30;99.90
30764;DHT22;17497;51.476;7.770;2022-12-18T01:55:49;-5.30;99.90
30764;DHT22;17497;51.476;7.770;2022-12-18T01:58:18;-5.20;99.90
30764;DHT22;17497;51.476;7.770;2022-12-18T02:00:45;-5.20;99.90
30764;DHT22;17497;51.476;7.770;2022-12-18T02:03:12;-5.20;99.90
30764;DHT22;17497;51.476;7.770;2022-12-18T02:05:44;-5.20;99.90
30764;DHT22;17497;51.476;7.770;2022-12-18T02:08:16;-5.20;99.90
30764;DHT22;17497;51.476;7.770;2022-12-18T02:16:21;-5.30;99.90
30764;DHT22;17497;51.476;7.770;2022-12-18T02:18:57;-5.20;99.90
30764;DHT22;17497;51.476;7.770;2022-12-18T02:21:45;-5.20;99.90
30764;DHT22;17497;51.476;7.770;2022-12-18T02:24:34;-5.20;99.90
30764;DHT22;17497;51.476;7.770;2022-12-18T02:27:05;-5.20;99.90
30764;DHT22;17497;51.476;7.770;2022-12-18T02:29:53;-5.20;99.90
30764;DHT22;17497;51.476;7.770;2022-12-18T02:32:30;-5.20;99.90
30764;DHT22;17497;51.476;7.770;2022-12-18T02:34:59;-5.10;99.90
30764;DHT22;17497;51.476;7.770;2022-12-18T02:37:28;-5.20;99.90
30764;DHT22;17497;51.476;7.770;2022-12-18T02:39:58;-5.20;99.90
30764;DHT22;17497;51.476;7.770;2022-12-18T02:42:26;-5.20;99.90
30764;DHT22;17497;51.476;7.770;2022-12-18T02:44:54;-5.20;99.90
30764;DHT22;17497;51.476;7.770;2022-12-18T02:47:23;-5.20;99.90
30764;DHT22;17497;51.476;7.770;2022-12-18T02:57:56;-5.20;99.90
30764;DHT22;17497;51.476;7.770;2022-12-18T03:00:41;-5.20;99.90
30764;DHT22;17497;51.476;7.770;2022-12-18T03:03:29;-5.20;99.90
30764;DHT22;17497;51.476;7.770;2022-12-18T03:06:10;-5.20;99.90
30764;DHT22;17497;51.476;7.770;2022-12-18T03:08:42;-5.20;99.90
30764;DHT22;17497;51.476;7.770;2022-12-18T03:11:12;-5.20;99.90
30764;DHT22;17497;51.476;7.770;2022-12-18T03:13:48;-5.20;99.90
30764;DHT22;17497;51.476;7.770;2022-12-18T03:16:24;-5.20;99.90
30764;DHT22;17497;51.476;7.770;2022-12-18T03:18:56;-5.30;99.90
30764;DHT22;17497;51.476;7.770;2022-12-18T03:21:29;-5.30;99.90
30764;DHT22;17497;51.476;7.770;2022-12-18T03:23:58;-5.40;99.90
30764;DHT22;17497;51.476;7.770;2022-12-18T03:26:27;-5.40;99.90
30764;DHT22;17497;51.476;7.770;2022-12-18T03:28:59;-5.30;99.90
30764;DHT22;17497;51.476;7.770;2022-12-18T03:31:29;-5.30;99.90
30764;DHT22;17497;51.476;7.770;2022-12-18T03:34:08;-5.30;99.90
30764;DHT22;17497;51.476;7.770;2022-12-18T03:36:35;-5.20;99.90
30764;DHT22;17497;51.476;7.770;2022-12-18T03:39:02;-5.20;99.90
30764;DHT22;17497;51.476;7.770;2022-12-18T03:41:39;-5.30;99.90
30764;DHT22;17497;51.476;7.770;2022-12-18T03:49:56;-5.30;99.90
30764;DHT22;17497;51.476;7.770;2022-12-18T03:52:38;-5.30;99.90
30764;DHT22;17497;51.476;7.770;2022-12-18T03:55:07;-5.20;99.90
30764;DHT22;17497;51.476;7.770;2022-12-18T03:57:35;-5.20;99.90
30764;DHT22;17497;51.476;7.770;2022-12-18T04:00:10;-5.20;99.90
30764;DHT22;17497;51.476;7.770;2022-12-18T04:02:42;-5.10;99.90
30764;DHT22;17497;51.476;7.770;2022-12-18T04:05:11;-5.10;99.90
30764;DHT22;17497;51.476;7.770;2022-12-18T04:07:39;-5.00;99.90
30764;DHT22;17497;51.476;7.770;2022-12-18T04:10:07;-5.00;99.90
30764;DHT22;17497;51.476;7.770;2022-12-18T04:12:37;-4.90;99.90
30764;DHT22;17497;51.476;7.770;2022-12-18T04:15:05;-4.80;99.90
30764;DHT22;17497;51.476;7.770;2022-12-18T04:17:32;-4.80;99.90
30764;DHT22;17497;51.476;7.770;2022-12-18T04:19:58;-4.80;99.90
30764;DHT22;17497;51.476;7.770;2022-12-18T04:22:26;-4.80;99.90
30764;DHT22;17497;51.476;7.770;2022-12-18T04:24:53;-4.80;99.90
30764;DHT22;17497;51.476;7.770;2022-12-18T04:27:20;-4.80;99.90
30764;DHT22;17497;51.476;7.770;2022-12-18T04:29:46;-4.80;99.90
30764;DHT22;17497;51.476;7.770;2022-12-18T04:32:13;-4.70;99.90
30764;DHT22;17497;51.476;7.770;2022-12-18T04:34:39;-4.70;99.90
30764;DHT22;17497;51.476;7.770;2022-12-18T04:37:06;-4.70;99.90
30764;DHT22;17497;51.476;7.770;2022-12-18T04:39:33;-4.70;99.90
30764;DHT22;17497;51.476;7.770;2022-12-18T04:41:59;-4.70;99.90
30764;DHT22;17497;51.476;7.770;2022-12-18T04:44:26;-4.70;99.90
30764;DHT22;17497;51.476;7.770;2022-12-18T04:46:53;-4.70;99.90
30764;DHT22;17497;51.476;7.770;2022-12-18T04:49:20;-4.70;99.90
30764;DHT22;17497;51.476;7.770;2022-12-18T04:51:47;-4.70;99.90
30764;DHT22;17497;51.476;7.770;2022-12-18T04:54:13;-4.70;99.90
30764;DHT22;17497;51.476;7.770;2022-12-18T04:56:40;-4.70;99.90
30764;DHT22;17497;51.476;7.770;2022-12-18T04:59:07;-4.70;99.90
30764;DHT22;17497;51.476;7.770;2022-12-18T05:01:34;-4.70;99.90
30764;DHT22;17497;51.476;7.770;2022-12-18T05:04:01;-4.70;99.90
30764;DHT22;17497;51.476;7.770;2022-12-18T05:06:29;-4.70;99.90
30764;DHT22;17497;51.476;7.770;2022-12-18T05:08:55;-4.60;99.90
30764;DHT22;17497;51.476;7.770;2022-12-18T05:11:22;-4.50;99.90
30764;DHT22;17497;51.476;7.770;2022-12-18T05:13:49;-4.40;99.90
30764;DHT22;17497;51.476;7.770;2022-12-18T05:16:15;-4.40;99.90
30764;DHT22;17497;51.476;7.770;2022-12-18T05:18:42;-4.30;99.90
30764;DHT22;17497;51.476;7.770;2022-12-18T05:21:09;-4.10;99.90
30764;DHT22;17497;51.476;7.770;2022-12-18T05:23:36;-4.00;99.90
30764;DHT22;17497;51.476;7.770;2022-12-18T05:26:04;-3.90;99.90
30764;DHT22;17497;51.476;7.770;2022-12-18T05:28:32;-3.90;99.90
30764;DHT22;17497;51.476;7.770;2022-12-18T05:31:00;-3.70;99.90
30764;DHT22;17497;51.476;7.770;2022-12-18T05:33:31;-3.50;99.90
30764;DHT22;17497;51.476;7.770;2022-12-18T05:36:00;-3.40;99.90
30764;DHT22;17497;51.476;7.770;2022-12-18T05:38:27;-3.30;99.90
30764;DHT22;17497;51.476;7.770;2022-12-18T05:40:54;-3.20;99.90
30764;DHT22;17497;51.476;7.770;2022-12-18T05:43:22;-3.10;99.90
30764;DHT22;17497;51.476;7.770;2022-12-18T05:45:50;-3.00;99.90
30764;DHT22;17497;51.476;7.770;2022-12-18T05:48:17;-2.90;99.90
30764;DHT22;17497;51.476;7.770;2022-12-18T05:50:46;-2.90;99.90
30764;DHT22;17497;51.476;7.770;2022-12-18T05:53:14;-2.90;99.90
30764;DHT22;17497;51.476;7.770;2022-12-18T05:55:42;-2.90;99.90
30764;DHT22;17497;51.476;7.770;2022-12-18T05:58:11;-2.80;99.90
30764;DHT22;17497;51.476;7.770;2022-12-18T06:00:42;-2.80;99.90
30764;DHT22;17497;51.476;7.770;2022-12-18T06:03:11;-2.80;99.90
30764;DHT22;17497;51.476;7.770;2022-12-18T06:05:40;-2.80;99.90
30764;DHT22;17497;51.476;7.770;2022-12-18T06:08:08;-2.80;99.90
30764;DHT22;17497;51.476;7.770;2022-12-18T06:10:35;-2.80;99.90
30764;DHT22;17497;51.476;7.770;2022-12-18T06:13:02;-2.80;99.90
30764;DHT22;17497;51.476;7.770;2022-12-18T06:15:29;-2.80;99.90
30764;DHT22;17497;51.476;7.770;2022-12-18T06:17:55;-2.70;99.90
30764;DHT22;17497;51.476;7.770;2022-12-18T06:20:22;-2.70;99.90
30764;DHT22;17497;51.476;7.770;2022-12-18T06:22:51;-2.60;99.90
30764;DHT22;17497;51.476;7.770;2022-12-18T06:25:18;-2.60;99.90
30764;DHT22;17497;51.476;7.770;2022-12-18T06:27:47;-2.60;99.90
30764;DHT22;17497;51.476;7.770;2022-12-18T06:30:14;-2.60;99.90
30764;DHT22;17497;51.476;7.770;2022-12-18T06:32:41;-2.70;99.90
30764;DHT22;17497;51.476;7.770;2022-12-18T06:35:08;-2.70;99.90
30764;DHT22;17497;51.476;7.770;2022-12-18T06:37:35;-2.80;99.90
30764;DHT22;17497;51.476;7.770;2022-12-18T06:40:02;-2.80;99.90
30764;DHT22;17497;51.476;7.770;2022-12-18T06:42:29;-2.90;99.90
30764;DHT22;17497;51.476;7.770;2022-12-18T06:44:55;-2.90;99.90
30764;DHT22;17497;51.476;7.770;2022-12-18T06:47:22;-3.00;99.90
30764;DHT22;17497;51.476;7.770;2022-12-18T06:49:49;-3.10;99.90
30764;DHT22;17497;51.476;7.770;2022-12-18T06:52:16;-3.10;99.90
30764;DHT22;17497;51.476;7.770;2022-12-18T06:54:42;-3.10;99.90
30764;DHT22;17497;51.476;7.770;2022-12-18T06:57:09;-3.10;99.90
30764;DHT22;17497;51.476;7.770;2022-12-18T06:59:36;-3.00;99.90
30764;DHT22;17497;51.476;7.770;2022-12-18T07:02:03;-2.90;99.90
30764;DHT22;17497;51.476;7.770;2022-12-18T07:04:30;-2.90;99.90
30764;DHT22;17497;51.476;7.770;2022-12-18T07:06:57;-2.90;99.90
30764;DHT22;17497;51.476;7.770;2022-12-18T07:09:24;-2.80;99.90
30764;DHT22;17497;51.476;7.770;2022-12-18T07:11:52;-2.80;99.90
30764;DHT22;17497;51.476;7.770;2022-12-18T07:14:18;-2.90;99.90
30764;DHT22;17497;51.476;7.770;2022-12-18T07:16:45;-2.90;99.90
30764;DHT22;17497;51.476;7.770;2022-12-18T07:19:12;-2.90;99.90
30764;DHT22;17497;51.476;7.770;2022-12-18T07:21:39;-2.90;99.90
30764;DHT22;17497;51.476;7.770;2022-12-18T07:24:06;-2.90;99.90
30764;DHT22;17497;51.476;7.770;2022-12-18T07:26:33;-2.90;99.90
30764;DHT22;17497;51.476;7.770;2022-12-18T07:28:59;-3.00;99.90
30764;DHT22;17497;51.476;7.770;2022-12-18T07:31:26;-3.10;99.90
30764;DHT22;17497;51.476;7.770;2022-12-18T07:33:54;-3.10;99.90
30764;DHT22;17497;51.476;7.770;2022-12-18T07:36:20;-3.10;99.90
30764;DHT22;17497;51.476;7.770;2022-12-18T07:38:48;-3.10;99.90
30764;DHT22;17497;51.476;7.770;2022-12-18T07:41:15;-3.10;99.90
30764;DHT22;17497;51.476;7.770;2022-12-18T07:43:42;-3.20;99.90
30764;DHT22;17497;51.476;7.770;2022-12-18T07:46:10;-3.10;99.90
30764;DHT22;17497;51.476;7.770;2022-12-18T07:48:40;-3.00;99.90
30764;DHT22;17497;51.476;7.770;2022-12-18T07:51:07;-2.90;99.90
30764;DHT22;17497;51.476;7.770;2022-12-18T07:53:34;-2.70;99.90
30764;DHT22;17497;51.476;7.770;2022-12-18T07:56:05;-2.50;99.90
30764;DHT22;17497;51.476;7.770;2022-12-18T07:58:51;-2.30;99.90
30764;DHT22;17497;51.476;7.770;2022-12-18T08:01:18;-2.20;99.90
30764;DHT22;17497;51.476;7.770;2022-12-18T08:03:46;-2.20;99.90
30764;DHT22;17497;51.476;7.770;2022-12-18T08:06:13;-2.00;99.90
30764;DHT22;17497;51.476;7.770;2022-12-18T08:08:40;-2.00;99.90
30764;DHT22;17497;51.476;7.770;2022-12-18T08:11:08;-1.80;99.90
30764;DHT22;17497;51.476;7.770;2022-12-18T08:13:35;-1.70;99.90
30764;DHT22;17497;51.476;7.770;2022-12-18T08:16:05;-1.70;99.90
30764;DHT22;17497;51.476;7.770;2022-12-18T08:18:34;-1.60;99.90
30764;DHT22;17497;51.476;7.770;2022-12-18T08:21:20;-1.60;99.90
30764;DHT22;17497;51.476;7.770;2022-12-18T08:23:49;-1.50;99.90
30764;DHT22;17497;51.476;7.770;2022-12-18T08:26:18;-1.50;99.90
30764;DHT22;17497;51.476;7.770;2022-12-18T08:29:14;-1.50;99.90
30764;DHT22;17497;51.476;7.770;2022-12-18T08:31:47;-1.50;99.90
30764;DHT22;17497;51.476;7.770;2022-12-18T08:34:13;-1.50;99.90
30764;DHT22;17497;51.476;7.770;2022-12-18T08:36:41;-1.50;99.90
30764;DHT22;17497;51.476;7.770;2022-12-18T08:39:07;-1.40;99.90
30764;DHT22;17497;51.476;7.770;2022-12-18T08:41:34;-1.40;99.90
30764;DHT22;17497;51.476;7.770;2022-12-18T08:44:01;-1.30;99.90
30764;DHT22;17497;51.476;7.770;2022-12-18T08:46:46;-1.30;99.90
30764;DHT22;17497;51.476;7.770;2022-12-18T08:49:13;-1.20;99.90
30764;DHT22;17497;51.476;7.770;2022-12-18T08:51:40;-1.10;99.90
30764;DHT22;17497;51.476;7.770;2022-12-18T08:54:07;-1.00;99.90
30764;DHT22;17497;51.476;7.770;2022-12-18T08:56:34;-0.90;99.90
30764;DHT22;17497;51.476;7.770;2022-12-18T08:59:01;-0.90;99.90
30764;DHT22;17497;51.476;7.770;2022-12-18T09:01:28;-0.70;99.90
30764;DHT22;17497;51.476;7.770;2022-12-18T09:03:55;-0.70;99.90
30764;DHT22;17497;51.476;7.770;2022-12-18T09:06:23;-0.60;99.90
30764;DHT22;17497;51.476;7.770;2022-12-18T09:08:49;-0.40;99.90
30764;DHT22;17497;51.476;7.770;2022-12-18T09:11:22;-0.40;99.90
30764;DHT22;17497;51.476;7.770;2022-12-18T09:13:49;-0.30;99.90
30764;DHT22;17497;51.476;7.770;2022-12-18T09:16:17;-0.30;99.90
30764;DHT22;17497;51.476;7.770;2022-12-18T09:18:44;-0.30;99.90
30764;DHT22;17497;51.476;7.770;2022-12-18T09:21:17;-0.30;99.90
30764;DHT22;17497;51.476;7.770;2022-12-18T09:23:48;-0.10;99.90
30764;DHT22;17497;51.476;7.770;2022-12-18T09:26:15;0.00;99.90
30764;DHT22;17497;51.476;7.770;2022-12-18T09:28:43;0.10;99.90
30764;DHT22;17497;51.476;7.770;2022-12-18T09:31:15;0.30;99.90
30764;DHT22;17497;51.476;7.770;2022-12-18T09:33:42;0.50;99.90
30764;DHT22;17497;51.476;7.770;2022-12-18T09:36:10;0.70;99.90
30764;DHT22;17497;51.476;7.770;2022-12-18T09:38:37;0.80;99.90
30764;DHT22;17497;51.476;7.770;2022-12-18T09:43:50;0.80;99.90
30764;DHT22;17497;51.476;7.770;2022-12-18T09:46:25;0.80;99.90
30764;DHT22;17497;51.476;7.770;2022-12-18T09:48:56;0.80;99.90
30764;DHT22;17497;51.476;7.770;2022-12-18T09:54:22;0.90;99.90
30764;DHT22;17497;51.476;7.770;2022-12-18T09:56:51;1.00;99.90
30764;DHT22;17497;51.476;7.770;2022-12-18T09:59:23;1.00;99.90
30764;DHT22;17497;51.476;7.770;2022-12-18T10:01:51;1.20;99.90
30764;DHT22;17497;51.476;7.770;2022-12-18T10:04:18;1.20;99.90
30764;DHT22;17497;51.476;7.770;2022-12-18T10:12:06;1.60;99.90
30764;DHT22;17497;51.476;7.770;2022-12-18T10:17:45;1.70;99.90
30764;DHT22;17497;51.476;7.770;2022-12-18T10:20:26;1.70;99.90
30764;DHT22;17497;51.476;7.770;2022-12-18T10:26:24;2.00;99.90
30764;DHT22;17497;51.476;7.770;2022-12-18T10:28:51;2.00;99.90
30764;DHT22;17497;51.476;7.770;2022-12-18T10:31:22;2.10;99.90
30764;DHT22;17497;51.476;7.770;2022-12-18T10:33:51;2.10;99.90
30764;DHT22;17497;51.476;7.770;2022-12-18T10:36:23;2.20;99.90
30764;DHT22;17497;51.476;7.770;2022-12-18T10:38:51;2.30;99.90
30764;DHT22;17497;51.476;7.770;2022-12-18T10:43:47;2.50;99.90
30764;DHT22;17497;51.476;7.770;2022-12-18T10:46:17;2.50;99.90
30764;DHT22;17497;51.476;7.770;2022-12-18T10:48:56;2.60;99.90
30764;DHT22;17497;51.476;7.770;2022-12-18T10:51:34;2.70;99.90
30764;DHT22;17497;51.476;7.770;2022-12-18T10:54:04;2.70;99.90
30764;DHT22;17497;51.476;7.770;2022-12-18T10:56:35;2.60;99.90
30764;DHT22;17497;51.476;7.770;2022-12-18T10:59:05;2.60;99.90
30764;DHT22;17497;51.476;7.770;2022-12-18T11:04:27;2.50;99.90
30764;DHT22;17497;51.476;7.770;2022-12-18T11:09:36;2.50;99.90
30764;DHT22;17497;51.476;7.770;2022-12-18T11:12:33;2.60;99.90
30764;DHT22;17497;51.476;7.770;2022-12-18T11:14:58;2.60;99.90
30764;DHT22;17497;51.476;7.770;2022-12-18T11:17:34;2.70;99.90
30764;DHT22;17497;51.476;7.770;2022-12-18T11:20:18;2.80;99.90
30764;DHT22;17497;51.476;7.770;2022-12-18T11:22:58;3.00;99.90
30764;DHT22;17497;51.476;7.770;2022-12-18T11:25:26;3.10;99.90
30764;DHT22;17497;51.476;7.770;2022-12-18T11:28:05;3.00;99.90
30764;DHT22;17497;51.476;7.770;2022-12-18T11:30:34;3.10;99.90
30764;DHT22;17497;51.476;7.770;2022-12-18T11:33:20;3.10;99.90
30764;DHT22;17497;51.476;7.770;2022-12-18T11:36:01;3.20;99.90
30764;DHT22;17497;51.476;7.770;2022-12-18T11:38:33;3.30;99.90
30764;DHT22;17497;51.476;7.770;2022-12-18T11:41:05;3.30;99.90
30764;DHT22;17497;51.476;7.770;2022-12-18T11:43:46;3.30;99.90
30764;DHT22;17497;51.476;7.770;2022-12-18T11:46:19;3.40;99.90
30764;DHT22;17497;51.476;7.770;2022-12-18T11:48:54;3.30;99.90
30764;DHT22;17497;51.476;7.770;2022-12-18T11:51:41;3.30;99.90
30764;DHT22;17497;51.476;7.770;2022-12-18T11:54:14;3.30;99.90
30764;DHT22;17497;51.476;7.770;2022-12-18T11:57:15;3.40;99.10
30764;DHT22;17497;51.476;7.770;2022-12-18T12:08:04;3.30;99.20
30764;DHT22;17497;51.476;7.770;2022-12-18T12:21:32;3.30;97.70
30764;DHT22;17497;51.476;7.770;2022-12-18T12:29:56;3.50;98.20
30764;DHT22;17497;51.476;7.770;2022-12-18T12:35:33;3.60;96.70
30764;DHT22;17497;51.476;7.770;2022-12-18T12:38:28;3.60;97.30
30764;DHT22;17497;51.476;7.770;2022-12-18T12:41:04;3.60;98.90
30764;DHT22;17497;51.476;7.770;2022-12-18T12:43:46;3.50;97.80
30764;DHT22;17497;51.476;7.770;2022-12-18T12:46:19;3.50;98.30
30764;DHT22;17497;51.476;7.770;2022-12-18T12:51:26;3.50;98.00
30764;DHT22;17497;51.476;7.770;2022-12-18T12:53:56;3.50;99.20
30764;DHT22;17497;51.476;7.770;2022-12-18T12:56:32;3.40;98.90
30764;DHT22;17497;51.476;7.770;2022-12-18T12:59:23;3.50;98.50
30764;DHT22;17497;51.476;7.770;2022-12-18T13:02:45;3.50;97.30
30764;DHT22;17497;51.476;7.770;2022-12-18T13:04:49;3.50;97.70
30764;DHT22;17497;51.476;7.770;2022-12-18T13:10:22;3.40;97.90
30764;DHT22;17497;51.476;7.770;2022-12-18T13:12:54;3.40;98.20
30764;DHT22;17497;51.476;7.770;2022-12-18T13:15:42;3.40;98.30
30764;DHT22;17497;51.476;7.770;2022-12-18T13:18:18;3.40;98.20
30764;DHT22;17497;51.476;7.770;2022-12-18T13:20:51;3.40;98.80
30764;DHT22;17497;51.476;7.770;2022-12-18T13:23:36;3.30;98.90
30764;DHT22;17497;51.476;7.770;2022-12-18T13:34:20;3.30;97.80
30764;DHT22;17497;51.476;7.770;2022-12-18T13:36:54;3.30;98.10
30764;DHT22;17497;51.476;7.770;2022-12-18T13:39:25;3.40;96.80
30764;DHT22;17497;51.476;7.770;2022-12-18T13:45:35;3.40;97.10
30764;DHT22;17497;51.476;7.770;2022-12-18T13:48:18;3.40;97.90
30764;DHT22;17497;51.476;7.770;2022-12-18T13:50:56;3.30;98.60
30764;DHT22;17497;51.476;7.770;2022-12-18T13:53:28;3.30;98.00
30764;DHT22;17497;51.476;7.770;2022-12-18T13:55:56;3.20;99.20
30764;DHT22;17497;51.476;7.770;2022-12-18T13:58:23;3.20;99.40
30764;DHT22;17497;51.476;7.770;2022-12-18T14:00:50;3.20;98.80
30764;DHT22;17497;51.476;7.770;2022-12-18T14:03:23;3.20;99.90
30764;DHT22;17497;51.476;7.770;2022-12-18T14:05:56;3.10;99.90
30764;DHT22;17497;51.476;7.770;2022-12-18T14:08:30;3.10;99.80
30764;DHT22;17497;51.476;7.770;2022-12-18T14:10:58;3.30;97.20
30764;DHT22;17497;51.476;7.770;2022-12-18T14:13:31;3.30;97.10
30764;DHT22;17497;51.476;7.770;2022-12-18T14:16:01;3.10;99.90
30764;DHT22;17497;51.476;7.770;2022-12-18T14:21:01;3.00;99.40
30764;DHT22;17497;51.476;7.770;2022-12-18T14:23:41;2.90;99.90
30764;DHT22;17497;51.476;7.770;2022-12-18T14:28:51;3.20;97.60
30764;DHT22;17497;51.476;7.770;2022-12-18T14:31:19;3.30;97.60
30764;DHT22;17497;51.476;7.770;2022-12-18T14:33:47;3.30;97.10
30764;DHT22;17497;51.476;7.770;2022-12-18T14:36:20;3.20;99.00
30764;DHT22;17497;51.476;7.770;2022-12-18T14:38:53;3.20;97.80
30764;DHT22;17497;51.476;7.770;2022-12-18T14:41:24;3.10;98.40
30764;DHT22;17497;51.476;7.770;2022-12-18T14:44:06;3.00;97.80
30764;DHT22;17497;51.476;7.770;2022-12-18T14:46:42;2.90;97.90
30764;DHT22;17497;51.476;7.770;2022-12-18T14:49:26;2.90;99.30
30764;DHT22;17497;51.476;7.770;2022-12-18T14:51:59;2.90;97.70
30764;DHT22;17497;51.476;7.770;2022-12-18T14:54:28;2.90;98.60
30764;DHT22;17497;51.476;7.770;2022-12-18T14:59:30;2.70;99.90
30764;DHT22;17497;51.476;7.770;2022-12-18T15:02:04;2.60;99.90
30764;DHT22;17497;51.476;7.770;2022-12-18T15:04:39;2.60;99.50
30764;DHT22;17497;51.476;7.770;2022-12-18T15:07:21;2.60;99.90
30764;DHT22;17497;51.476;7.770;2022-12-18T15:12:44;2.40;99.90
30764;DHT22;17497;51.476;7.770;2022-12-18T15:18:00;2.40;99.90
30764;DHT22;17497;51.476;7.770;2022-12-18T15:20:30;2.30;99.90
30764;DHT22;17497;51.476;7.770;2022-12-18T15:22:58;2.20;99.90
30764;DHT22;17497;51.476;7.770;2022-12-18T15:25:36;2.30;99.90
30764;DHT22;17497;51.476;7.770;2022-12-18T15:28:17;2.20;99.90
30764;DHT22;17497;51.476;7.770;2022-12-18T15:36:22;2.10;99.90
30764;DHT22;17497;51.476;7.770;2022-12-18T15:38:54;2.10;99.90
30764;DHT22;17497;51.476;7.770;2022-12-18T15:41:32;2.10;99.90
30764;DHT22;17497;51.476;7.770;2022-12-18T15:43:59;2.00;99.90
30764;DHT22;17497;51.476;7.770;2022-12-18T15:46:26;2.00;99.90
30764;DHT22;17497;51.476;7.770;2022-12-18T15:48:56;2.00;99.90
30764;DHT22;17497;51.476;7.770;2022-12-18T15:51:33;2.00;99.90
30764;DHT22;17497;51.476;7.770;2022-12-18T15:54:03;2.00;99.90
30764;DHT22;17497;51.476;7.770;2022-12-18T15:56:31;2.00;99.90
30764;DHT22;17497;51.476;7.770;2022-12-18T15:59:19;2.00;99.90
30764;DHT22;17497;51.476;7.770;2022-12-18T16:01:49;2.00;99.90
30764;DHT22;17497;51.476;7.770;2022-12-18T16:04:18;2.00;99.90
30764;DHT22;17497;51.476;7.770;2022-12-18T16:06:47;2.00;99.90
30764;DHT22;17497;51.476;7.770;2022-12-18T16:09:34;1.90;99.90
30764;DHT22;17497;51.476;7.770;2022-12-18T16:12:02;1.90;99.90
30764;DHT22;17497;51.476;7.770;2022-12-18T16:14:30;2.00;99.90
30764;DHT22;17497;51.476;7.770;2022-12-18T16:17:05;2.00;99.90
30764;DHT22;17497;51.476;7.770;2022-12-18T16:19:32;1.90;99.90
30764;DHT22;17497;51.476;7.770;2022-12-18T16:21:59;2.10;99.90
30764;DHT22;17497;51.476;7.770;2022-12-18T16:24:27;2.20;99.90
30764;DHT22;17497;51.476;7.770;2022-12-18T16:26:57;2.20;99.90
30764;DHT22;17497;51.476;7.770;2022-12-18T16:29:26;2.20;99.90
30764;DHT22;17497;51.476;7.770;2022-12-18T16:31:59;2.20;99.90
30764;DHT22;17497;51.476;7.770;2022-12-18T16:34:31;2.20;99.90
30764;DHT22;17497;51.476;7.770;2022-12-18T16:37:03;2.10;99.90
30764;DHT22;17497;51.476;7.770;2022-12-18T16:39:35;1.90;99.90
30764;DHT22;17497;51.476;7.770;2022-12-18T16:42:10;1.90;99.90
30764;DHT22;17497;51.476;7.770;2022-12-18T16:44:39;1.90;99.90
30764;DHT22;17497;51.476;7.770;2022-12-18T16:47:09;2.00;99.90
30764;DHT22;17497;51.476;7.770;2022-12-18T16:49:40;2.10;99.90
30764;DHT22;17497;51.476;7.770;2022-12-18T16:52:08;2.10;99.90
30764;DHT22;17497;51.476;7.770;2022-12-18T16:54:34;2.10;99.90
30764;DHT22;17497;51.476;7.770;2022-12-18T16:57:03;2.10;99.90
30764;DHT22;17497;51.476;7.770;2022-12-18T16:59:30;2.10;99.90
30764;DHT22;17497;51.476;7.770;2022-12-18T17:02:00;2.00;99.90
30764;DHT22;17497;51.476;7.770;2022-12-18T17:04:27;1.90;99.90
30764;DHT22;17497;51.476;7.770;2022-12-18T17:06:54;1.90;99.90
30764;DHT22;17497;51.476;7.770;2022-12-18T17:09:21;1.90;99.90
30764;DHT22;17497;51.476;7.770;2022-12-18T17:11:52;1.90;99.90
30764;DHT22;17497;51.476;7.770;2022-12-18T17:14:20;1.80;99.90
30764;DHT22;17497;51.476;7.770;2022-12-18T17:16:47;1.90;99.90
30764;DHT22;17497;51.476;7.770;2022-12-18T17:19:33;2.00;99.90
30764;DHT22;17497;51.476;7.770;2022-12-18T17:22:00;2.00;99.90
30764;DHT22;17497;51.476;7.770;2022-12-18T17:24:27;2.00;99.90
30764;DHT22;17497;51.476;7.770;2022-12-18T17:27:00;1.90;99.90
30764;DHT22;17497;51.476;7.770;2022-12-18T17:29:27;2.00;99.90
30764;DHT22;17497;51.476;7.770;2022-12-18T17:31:54;2.00;99.90
30764;DHT22;17497;51.476;7.770;2022-12-18T17:34:22;1.90;99.90
30764;DHT22;17497;51.476;7.770;2022-12-18T17:36:49;1.90;99.90
30764;DHT22;17497;51.476;7.770;2022-12-18T17:39:18;1.90;99.90
30764;DHT22;17497;51.476;7.770;2022-12-18T17:41:46;1.90;99.90
30764;DHT22;17497;51.476;7.770;2022-12-18T17:44:13;1.80;99.90
30764;DHT22;17497;51.476;7.770;2022-12-18T17:46:43;1.80;99.90
30764;DHT22;17497;51.476;7.770;2022-12-18T17:49:11;1.80;99.90